createdAt,value
2023-01-21T00:06:44.731Z,-0.20
2023-01-21T00:21:46.784Z,-0.30
2023-01-21T00:36:48.706Z,-0.30
2023-01-21T00:51:50.775Z,-0.20
2023-01-21T01:06:52.728Z,-0.20
2023-01-21T01:21:54.656Z,-0.30
2023-01-21T01:36:56.629Z,-0.40
2023-01-21T01:52:01.740Z,-0.30
2023-01-21T02:07:04.434Z,-0.30
2023-01-21T02:22:26.576Z,-0.40
2023-01-21T02:37:55.875Z,-0.30
2023-01-21T02:53:03.301Z,-0.40
2023-01-21T03:08:19.376Z,-0.30
2023-01-21T03:23:28.195Z,-0.30
2023-01-21T03:38:39.933Z,-0.30
2023-01-21T03:53:42.952Z,-0.20
2023-01-21T04:08:45.343Z,-0.30
2023-01-21T04:23:47.483Z,-0.30
2023-01-21T04:38:49.522Z,-0.20
2023-01-21T04:53:51.446Z,-0.20
2023-01-21T05:08:53.479Z,-0.20
2023-01-21T05:23:55.465Z,-0.10
2023-01-21T05:38:58.525Z,-0.10
2023-01-21T05:54:00.472Z,0.00
2023-01-21T06:09:02.531Z,0.00
2023-01-21T06:24:04.588Z,0.10
2023-01-21T06:39:06.521Z,0.10
2023-01-21T06:54:10.053Z,0.20
2023-01-21T07:09:12.174Z,0.30
2023-01-21T07:24:14.176Z,0.30
2023-01-21T07:39:16.239Z,0.30
2023-01-21T07:54:18.228Z,0.50
2023-01-21T08:09:20.147Z,0.50
2023-01-21T08:24:22.260Z,0.60
2023-01-21T08:39:25.450Z,0.60
2023-01-21T08:54:27.463Z,0.60
2023-01-21T09:09:29.471Z,0.70
2023-01-21T09:24:32.019Z,0.90
2023-01-21T09:39:34.015Z,1.00
2023-01-21T09:54:37.293Z,1.10
2023-01-21T10:09:48.071Z,1.30
2023-01-21T10:25:15.525Z,1.40
2023-01-21T10:40:45.394Z,1.60
2023-01-21T10:56:02.271Z,1.60
2023-01-21T11:11:07.601Z,1.50
2023-01-21T11:26:23.651Z,1.60
2023-01-21T11:41:25.718Z,1.60
2023-01-21T11:56:27.694Z,1.50
2023-01-21T12:11:31.236Z,1.50
2023-01-21T12:26:36.091Z,1.50
2023-01-21T12:41:40.203Z,1.50
2023-01-21T12:57:20.671Z,1.50
2023-01-21T13:12:26.835Z,1.50
2023-01-21T13:27:55.712Z,1.50
2023-01-21T13:43:15.861Z,1.50
2023-01-21T13:58:42.837Z,1.60
2023-01-21T14:13:59.922Z,1.40
2023-01-21T14:29:32.928Z,1.40
2023-01-21T14:44:39.199Z,1.40
2023-01-21T14:59:44.671Z,1.40
2023-01-21T15:14:47.014Z,1.50
2023-01-21T15:29:54.745Z,1.40
2023-01-21T15:45:16.101Z,1.30
2023-01-21T16:00:32.930Z,1.40
2023-01-21T16:15:43.946Z,1.20
2023-01-21T16:30:57.717Z,1.50
2023-01-21T16:46:11.372Z,1.40
2023-01-21T17:01:15.698Z,1.40
2023-01-21T17:16:31.489Z,1.40
2023-01-21T17:31:42.596Z,1.40
2023-01-21T17:46:53.304Z,1.40
2023-01-21T18:01:56.172Z,1.50
2023-01-21T18:16:58.296Z,1.50
2023-01-21T18:32:00.323Z,1.50
2023-01-21T18:47:02.340Z,1.60
2023-01-21T19:02:14.278Z,1.50
2023-01-21T19:17:26.988Z,1.50
2023-01-21T19:32:28.932Z,1.60
2023-01-21T19:47:30.905Z,1.50
2023-01-21T20:02:32.981Z,1.50
2023-01-21T20:17:35.465Z,1.50
2023-01-21T20:32:37.395Z,1.50
2023-01-21T20:47:49.624Z,1.60
2023-01-21T21:02:55.612Z,1.60
2023-01-21T21:17:58.343Z,1.60
2023-01-21T21:33:01.924Z,1.60
2023-01-21T21:48:23.131Z,1.60
2023-01-21T22:03:25.162Z,1.60
2023-01-21T22:18:28.413Z,1.60
2023-01-21T22:33:31.406Z,1.60
2023-01-21T22:48:34.097Z,1.60
2023-01-21T23:03:37.479Z,1.40
2023-01-21T23:18:40.613Z,1.40
2023-01-21T23:33:43.290Z,1.40
2023-01-21T23:48:45.760Z,1.40
